Time;durP1;ratioP1;P1;durP2;ratioP2;P2;SDS_P1;SDS_P2;PMS_P1;PMS_P2;Temp;Humidity;BMP_temperature;BMP_pressure;BME280_temperature;BME280_humidity;BME280_pressure;Samples;Min_cycle;Max_cycle;Signal;HPM_P1;HPM_P2
2022/10/12 00:01:36;;;;;;;5.40;3.22;;;7.40;99.90;;;;;;5088735;28;20051;-64
2022/10/12 00:04:01;;;;;;;6.05;3.17;;;7.40;99.90;;;;;;5081653;28;20049;-65
2022/10/12 00:06:27;;;;;;;9.13;3.92;;;7.40;99.90;;;;;;5080855;28;20402;-65
2022/10/12 00:08:53;;;;;;;6.30;3.30;;;7.40;99.90;;;;;;5087367;28;20072;-64
2022/10/12 00:11:24;;;;;;;6.25;3.70;;;7.40;99.90;;;;;;5085198;28;20048;-65
2022/10/12 00:13:50;;;;;;;8.05;3.47;;;7.40;99.90;;;;;;5087241;28;20085;-66
2022/10/12 00:16:18;;;;;;;6.75;3.53;;;7.40;99.90;;;;;;5087517;28;20050;-65
2022/10/12 00:18:44;;;;;;;6.57;3.80;;;7.40;99.90;;;;;;5086188;28;20067;-67
2022/10/12 00:21:12;;;;;;;6.03;3.38;;;7.40;99.90;;;;;;5067919;28;20163;-65
2022/10/12 00:23:39;;;;;;;6.65;3.33;;;7.50;99.90;;;;;;5090981;28;20055;-64
2022/10/12 00:26:09;;;;;;;6.47;3.88;;;7.40;99.90;;;;;;5089304;28;20459;-65
2022/10/12 00:28:35;;;;;;;8.23;3.30;;;7.40;99.90;;;;;;5084567;28;20049;-65
2022/10/12 00:31:06;;;;;;;4.53;3.10;;;7.40;99.90;;;;;;5091588;28;20059;-65
2022/10/12 00:33:31;;;;;;;8.75;3.63;;;7.40;99.90;;;;;;5086601;28;20251;-66
2022/10/12 00:35:57;;;;;;;5.63;3.42;;;7.40;99.90;;;;;;5092561;28;20146;-65
2022/10/12 00:38:23;;;;;;;4.97;3.50;;;7.40;99.90;;;;;;5089759;28;20125;-65
2022/10/12 00:40:49;;;;;;;6.57;3.28;;;7.40;99.90;;;;;;5067355;28;20040;-65
2022/10/12 00:43:25;;;;;;;6.90;3.58;;;7.40;99.90;;;;;;5055813;28;20063;-65
2022/10/12 00:45:50;;;;;;;6.82;3.17;;;7.40;99.90;;;;;;5084328;28;20032;-65
2022/10/12 00:48:16;;;;;;;4.90;2.83;;;7.40;99.90;;;;;;5067572;28;20047;-66
2022/10/12 00:50:42;;;;;;;5.60;2.80;;;7.40;99.90;;;;;;5066085;28;20493;-66
2022/10/12 00:53:13;;;;;;;5.00;2.40;;;7.40;99.90;;;;;;5070080;28;20040;-65
2022/10/12 00:55:48;;;;;;;6.57;2.22;;;7.40;99.90;;;;;;5064470;28;20098;-63
2022/10/12 00:58:14;;;;;;;5.90;2.88;;;7.40;99.90;;;;;;5086835;28;20040;-63
2022/10/12 01:00:42;;;;;;;6.28;2.75;;;7.40;99.90;;;;;;5049201;28;20102;-66
2022/10/12 01:03:12;;;;;;;6.22;2.35;;;7.30;99.90;;;;;;5072133;28;20462;-66
2022/10/12 01:05:39;;;;;;;6.60;2.30;;;7.30;99.90;;;;;;5064988;28;20072;-65
2022/10/12 01:08:05;;;;;;;7.60;2.17;;;7.30;99.90;;;;;;5091129;28;20455;-64
2022/10/12 01:10:31;;;;;;;5.38;2.40;;;7.30;99.90;;;;;;5072835;28;20082;-65
2022/10/12 01:12:56;;;;;;;6.60;2.13;;;7.30;99.90;;;;;;5064345;28;20055;-64
2022/10/12 01:15:24;;;;;;;4.72;2.13;;;7.30;99.90;;;;;;5070938;28;20032;-64
2022/10/12 01:18:05;;;;;;;6.38;2.35;;;7.20;99.90;;;;;;5069273;28;20051;-67
2022/10/12 01:20:38;;;;;;;5.82;2.30;;;7.20;99.90;;;;;;5070111;28;20056;-64
2022/10/12 01:23:16;;;;;;;4.47;1.80;;;7.20;99.90;;;;;;5054604;28;20032;-67
2022/10/12 01:26:02;;;;;;;8.25;3.08;;;7.20;99.90;;;;;;5067798;28;20071;-65
2022/10/12 01:28:57;;;;;;;5.25;1.90;;;7.20;99.90;;;;;;5073453;28;20047;-65
2022/10/12 01:31:50;;;;;;;7.18;2.25;;;7.20;99.90;;;;;;5067834;28;20483;-65
2022/10/12 01:34:18;;;;;;;4.22;1.70;;;7.20;99.90;;;;;;5056550;28;20506;-64
2022/10/12 01:36:50;;;;;;;4.72;1.90;;;7.10;99.90;;;;;;5062594;28;20048;-64
2022/10/12 01:39:25;;;;;;;4.50;1.60;;;7.10;99.90;;;;;;5070518;28;20079;-65
2022/10/12 01:42:05;;;;;;;5.38;1.60;;;7.10;99.90;;;;;;5082475;28;20072;-65
2022/10/12 01:44:31;;;;;;;4.78;1.65;;;7.10;99.90;;;;;;5072013;28;20044;-67
2022/10/12 01:46:57;;;;;;;4.68;2.17;;;7.10;99.90;;;;;;5069725;28;20115;-65
2022/10/12 01:49:34;;;;;;;5.40;1.70;;;7.10;99.90;;;;;;5071606;28;20122;-65
2022/10/12 01:52:23;;;;;;;4.93;1.80;;;7.10;99.90;;;;;;5069531;28;20441;-65
2022/10/12 01:55:07;;;;;;;4.20;1.80;;;7.10;99.90;;;;;;5054196;28;20048;-64
2022/10/12 01:57:49;;;;;;;3.13;1.88;;;7.10;99.90;;;;;;5068633;28;20036;-67
2022/10/12 02:00:16;;;;;;;3.15;1.80;;;7.10;99.90;;;;;;5073334;28;20060;-64
2022/10/12 02:03:00;;;;;;;4.25;1.63;;;7.10;99.90;;;;;;5072991;28;20068;-66
2022/10/12 02:05:32;;;;;;;6.78;1.65;;;7.10;99.90;;;;;;5054126;28;20079;-64
2022/10/12 02:08:07;;;;;;;3.47;1.75;;;7.10;99.90;;;;;;5066016;28;20047;-65
2022/10/12 02:10:39;;;;;;;6.55;1.70;;;7.10;99.90;;;;;;5057879;28;20044;-66
2022/10/12 02:13:07;;;;;;;4.60;1.70;;;7.10;99.90;;;;;;5063553;28;20052;-65
2022/10/12 02:15:35;;;;;;;4.43;1.90;;;7.10;99.90;;;;;;5071887;28;20036;-65
2022/10/12 02:18:03;;;;;;;6.07;1.80;;;7.20;99.90;;;;;;5060050;28;20057;-65
2022/10/12 02:20:31;;;;;;;10.02;2.00;;;7.20;99.90;;;;;;5066787;28;20044;-64
2022/10/12 02:22:58;;;;;;;3.22;1.70;;;7.20;99.90;;;;;;5067048;28;20041;-64
2022/10/12 02:25:26;;;;;;;4.35;1.98;;;7.20;99.90;;;;;;5073767;28;21014;-66
2022/10/12 02:28:06;;;;;;;6.43;2.33;;;7.10;99.90;;;;;;5079870;28;20494;-66
2022/10/12 02:30:37;;;;;;;9.90;2.55;;;7.10;99.90;;;;;;5065498;28;20040;-65
2022/10/12 02:33:12;;;;;;;4.63;2.40;;;7.10;99.90;;;;;;5058104;28;20560;-66
2022/10/12 02:35:44;;;;;;;4.57;2.60;;;7.10;99.90;;;;;;5069044;28;20506;-66
2022/10/12 02:38:20;;;;;;;5.35;2.78;;;7.00;99.90;;;;;;5071751;28;20104;-65
2022/10/12 02:40:53;;;;;;;6.10;2.97;;;7.00;99.90;;;;;;5089126;28;20036;-65
2022/10/12 02:43:31;;;;;;;10.18;3.00;;;7.00;99.90;;;;;;5092319;28;20506;-66
2022/10/12 02:45:58;;;;;;;5.63;2.90;;;7.00;99.90;;;;;;5085698;28;20040;-66
2022/10/12 02:48:25;;;;;;;10.60;4.18;;;7.00;99.90;;;;;;5085477;28;20055;-67
2022/10/12 02:50:54;;;;;;;7.88;4.13;;;7.00;99.90;;;;;;5089406;28;20032;-66
2022/10/12 02:53:21;;;;;;;10.68;3.75;;;7.00;99.90;;;;;;5087514;28;20107;-65
2022/10/12 02:55:53;;;;;;;9.65;4.70;;;7.00;99.90;;;;;;5078445;28;20119;-64
2022/10/12 02:58:19;;;;;;;9.20;4.32;;;7.10;99.90;;;;;;5080007;28;20075;-65
2022/10/12 03:00:45;;;;;;;14.10;5.00;;;7.10;99.90;;;;;;5088899;28;20413;-65
2022/10/12 03:03:11;;;;;;;10.13;5.22;;;7.10;99.90;;;;;;5083872;28;20032;-63
2022/10/12 03:05:37;;;;;;;13.95;4.90;;;7.10;99.90;;;;;;5082910;28;20051;-64
2022/10/12 03:08:03;;;;;;;11.48;4.63;;;7.10;99.90;;;;;;5088051;28;20046;-65
2022/10/12 03:10:29;;;;;;;12.32;4.38;;;7.10;99.90;;;;;;5083720;28;20059;-65
2022/10/12 03:12:54;;;;;;;9.23;4.07;;;7.10;99.90;;;;;;5090008;28;20036;-67
2022/10/12 03:15:20;;;;;;;11.98;5.03;;;7.10;99.90;;;;;;5089511;28;20082;-64
2022/10/12 03:17:46;;;;;;;6.80;4.10;;;7.10;99.90;;;;;;5087968;28;20061;-64
2022/10/12 03:20:12;;;;;;;9.27;4.60;;;7.20;99.90;;;;;;5087202;28;20054;-63
2022/10/12 03:22:38;;;;;;;15.27;4.90;;;7.10;99.90;;;;;;5088678;28;20394;-64
2022/10/12 03:25:03;;;;;;;9.23;4.70;;;7.20;99.90;;;;;;5088049;28;20043;-65
2022/10/12 03:27:29;;;;;;;9.75;4.78;;;7.20;99.90;;;;;;5102582;28;20155;-65
2022/10/12 03:29:55;;;;;;;6.00;3.45;;;7.20;99.90;;;;;;5088828;28;20032;-65
2022/10/12 03:32:21;;;;;;;7.72;3.88;;;7.20;99.90;;;;;;5092447;28;20040;-66
2022/10/12 03:34:46;;;;;;;8.77;4.18;;;7.10;99.90;;;;;;5082319;28;20083;-64
2022/10/12 03:37:12;;;;;;;5.78;3.70;;;7.10;99.90;;;;;;5088479;28;20075;-65
2022/10/12 03:39:38;;;;;;;10.75;4.10;;;7.00;99.90;;;;;;5068261;28;20048;-64
2022/10/12 03:42:03;;;;;;;9.50;4.03;;;7.00;99.90;;;;;;5070379;28;20060;-65
2022/10/12 03:44:29;;;;;;;11.38;4.50;;;7.00;99.90;;;;;;5067495;28;20111;-65
2022/10/12 03:46:54;;;;;;;7.80;3.88;;;6.90;99.90;;;;;;5055584;28;20040;-65
2022/10/12 03:49:20;;;;;;;6.70;3.88;;;6.90;99.90;;;;;;5054734;28;20052;-64
2022/10/12 03:51:46;;;;;;;6.03;3.58;;;6.90;99.90;;;;;;5069745;28;20079;-64
2022/10/12 03:54:11;;;;;;;5.65;3.20;;;6.80;99.90;;;;;;5052052;28;20520;-66
2022/10/12 03:56:37;;;;;;;5.80;3.08;;;6.80;99.90;;;;;;5069415;28;20036;-66
2022/10/12 03:59:03;;;;;;;7.63;3.75;;;6.80;99.90;;;;;;5069444;28;20048;-64
2022/10/12 04:01:29;;;;;;;6.40;2.80;;;6.70;99.90;;;;;;5089643;28;20493;-65
2022/10/12 04:03:54;;;;;;;6.95;3.47;;;6.70;99.90;;;;;;5069029;28;20044;-67
2022/10/12 04:06:20;;;;;;;7.53;3.95;;;6.70;99.90;;;;;;5085629;28;20486;-65
2022/10/12 04:08:46;;;;;;;6.95;3.90;;;6.70;99.90;;;;;;5071077;28;20457;-65
2022/10/12 04:11:11;;;;;;;8.02;3.78;;;6.60;99.90;;;;;;5061766;28;20572;-64
2022/10/12 04:13:37;;;;;;;10.13;3.85;;;6.60;99.90;;;;;;5070625;28;20043;-65
2022/10/12 04:16:04;;;;;;;7.53;4.10;;;6.60;99.90;;;;;;5069364;28;20036;-66
2022/10/12 04:18:30;;;;;;;7.63;4.20;;;6.70;99.90;;;;;;5069171;28;20040;-65
2022/10/12 04:20:56;;;;;;;8.90;4.03;;;6.60;99.90;;;;;;5070295;28;20040;-65
2022/10/12 04:23:21;;;;;;;10.35;4.38;;;6.60;99.90;;;;;;5067794;28;20035;-64
2022/10/12 04:25:47;;;;;;;8.57;4.65;;;6.70;99.90;;;;;;5052468;28;20071;-65
2022/10/12 04:28:13;;;;;;;8.93;4.72;;;6.70;99.90;;;;;;5068815;28;20047;-65
2022/10/12 04:30:38;;;;;;;9.45;4.85;;;6.70;99.90;;;;;;5073542;28;20090;-63
2022/10/12 04:33:04;;;;;;;12.60;5.95;;;6.70;99.90;;;;;;5067941;28;20059;-65
2022/10/12 04:35:30;;;;;;;7.75;4.65;;;6.70;99.90;;;;;;5047680;28;20470;-65
2022/10/12 04:37:56;;;;;;;7.85;5.00;;;6.70;99.90;;;;;;5068261;28;20392;-65
2022/10/12 04:40:22;;;;;;;8.80;5.00;;;6.70;99.90;;;;;;5084283;28;20036;-65
2022/10/12 04:42:48;;;;;;;6.70;4.30;;;6.70;99.90;;;;;;5089051;28;20082;-66
2022/10/12 04:45:14;;;;;;;6.68;3.85;;;6.70;99.90;;;;;;5087869;28;20032;-66
2022/10/12 04:47:39;;;;;;;7.07;3.47;;;6.70;99.90;;;;;;5069550;28;20047;-65
2022/10/12 04:50:05;;;;;;;5.53;3.63;;;6.70;99.90;;;;;;5087594;28;20036;-66
2022/10/12 04:52:31;;;;;;;6.40;4.28;;;6.60;99.90;;;;;;5086649;28;20093;-65
2022/10/12 04:54:57;;;;;;;6.53;3.08;;;6.60;99.90;;;;;;5090340;28;20429;-65
2022/10/12 04:57:22;;;;;;;8.05;3.53;;;6.50;99.90;;;;;;5087653;28;20036;-64
2022/10/12 04:59:48;;;;;;;9.80;3.92;;;6.50;99.90;;;;;;5087816;28;20130;-65
2022/10/12 05:02:14;;;;;;;6.80;3.70;;;6.40;99.90;;;;;;5086218;28;20032;-66
2022/10/12 05:04:39;;;;;;;9.02;4.07;;;6.40;99.90;;;;;;5087553;28;20447;-66
2022/10/12 05:07:05;;;;;;;9.43;4.75;;;6.40;99.90;;;;;;5083780;28;20749;-64
2022/10/12 05:09:31;;;;;;;8.68;4.75;;;6.30;99.90;;;;;;5089413;28;20040;-64
2022/10/12 05:11:56;;;;;;;8.02;4.63;;;6.30;99.90;;;;;;5086182;28;20497;-64
2022/10/12 05:14:22;;;;;;;9.90;4.63;;;6.30;99.90;;;;;;5090042;28;20192;-66
2022/10/12 05:16:47;;;;;;;7.63;4.97;;;6.20;99.90;;;;;;5090229;28;20043;-65
2022/10/12 05:19:13;;;;;;;10.05;5.78;;;6.20;99.90;;;;;;5091356;28;20399;-63
2022/10/12 05:21:39;;;;;;;9.88;6.13;;;6.20;99.90;;;;;;5089880;28;20032;-65
2022/10/12 05:24:05;;;;;;;10.82;6.00;;;6.20;99.90;;;;;;5073333;28;20043;-64
2022/10/12 05:26:31;;;;;;;8.45;5.35;;;6.20;99.90;;;;;;5089672;28;20036;-65
2022/10/12 05:28:57;;;;;;;6.32;5.00;;;6.20;99.90;;;;;;5085717;28;20044;-66
2022/10/12 05:31:22;;;;;;;13.32;6.75;;;6.20;99.90;;;;;;5089084;28;20493;-65
2022/10/12 05:33:48;;;;;;;12.32;5.88;;;6.20;99.90;;;;;;5085202;28;20040;-66
2022/10/12 05:36:14;;;;;;;11.38;6.38;;;6.20;99.90;;;;;;5089442;28;20036;-65
2022/10/12 05:38:39;;;;;;;13.38;5.90;;;6.20;99.90;;;;;;5089726;28;20044;-66
2022/10/12 05:41:05;;;;;;;9.95;5.47;;;6.30;99.90;;;;;;5079875;28;20176;-64
2022/10/12 05:43:31;;;;;;;13.57;5.88;;;6.30;99.90;;;;;;5090472;28;20032;-65
2022/10/12 05:45:56;;;;;;;11.32;5.30;;;6.30;99.90;;;;;;5094710;28;20058;-67
2022/10/12 05:48:22;;;;;;;13.35;5.95;;;6.30;99.90;;;;;;5091744;28;20044;-66
2022/10/12 05:50:52;;;;;;;9.15;5.53;;;6.30;99.90;;;;;;5111907;27;20088;-65
2022/10/12 05:53:18;;;;;;;14.88;5.75;;;6.30;99.90;;;;;;5088307;28;20462;-64
2022/10/12 05:56:00;;;;;;;11.13;5.90;;;6.30;99.90;;;;;;5087819;28;20082;-65
2022/10/12 05:58:27;;;;;;;10.40;5.55;;;6.20;99.90;;;;;;5090610;28;20047;-66
2022/10/12 06:00:54;;;;;;;11.95;5.78;;;6.20;99.90;;;;;;5089289;28;20406;-64
2022/10/12 06:03:20;;;;;;;9.10;5.65;;;6.10;99.90;;;;;;5089243;28;20368;-67
2022/10/12 06:05:46;;;;;;;10.48;5.32;;;6.10;99.90;;;;;;5090937;28;20036;-66
2022/10/12 06:08:13;;;;;;;9.35;5.15;;;6.10;99.90;;;;;;5093891;28;20047;-66
2022/10/12 06:10:49;;;;;;;11.05;5.53;;;6.10;99.90;;;;;;5090211;28;20079;-65
2022/10/12 06:13:16;;;;;;;11.35;5.32;;;6.10;99.90;;;;;;5090298;28;20044;-66
2022/10/12 06:15:44;;;;;;;9.35;5.15;;;6.10;99.90;;;;;;5090959;28;20444;-65
2022/10/12 06:18:11;;;;;;;9.52;5.05;;;6.10;99.90;;;;;;5088070;28;20052;-66
2022/10/12 06:20:36;;;;;;;7.38;5.70;;;6.10;99.90;;;;;;5072654;28;20055;-64
2022/10/12 06:23:03;;;;;;;9.30;5.43;;;6.10;99.90;;;;;;5090547;28;20386;-67
2022/10/12 06:25:28;;;;;;;8.75;5.55;;;6.10;99.90;;;;;;5089057;28;20051;-65
2022/10/12 06:27:54;;;;;;;7.70;5.50;;;6.10;99.90;;;;;;5089807;28;20032;-67
2022/10/12 06:30:19;;;;;;;9.38;5.63;;;6.10;99.90;;;;;;5090280;28;20419;-65
2022/10/12 06:32:45;;;;;;;11.00;7.35;;;6.10;99.90;;;;;;5072676;28;20490;-65
2022/10/12 06:35:11;;;;;;;10.00;6.70;;;6.10;99.90;;;;;;5089436;28;20107;-64
2022/10/12 06:37:36;;;;;;;9.57;7.20;;;6.10;99.90;;;;;;5072534;28;20059;-66
2022/10/12 06:40:04;;;;;;;16.88;8.52;;;6.10;99.90;;;;;;5089868;28;20036;-66
2022/10/12 06:42:30;;;;;;;11.93;6.85;;;6.10;99.90;;;;;;5067910;28;20055;-65
2022/10/12 06:44:56;;;;;;;13.00;6.40;;;6.10;99.90;;;;;;5089418;28;20059;-65
2022/10/12 06:47:21;;;;;;;13.07;7.00;;;6.20;99.90;;;;;;5093982;28;20036;-68
2022/10/12 06:49:47;;;;;;;11.13;7.38;;;6.20;99.90;;;;;;5088067;28;20414;-65
2022/10/12 06:52:13;;;;;;;13.45;6.72;;;6.30;99.90;;;;;;5089948;28;20505;-65
2022/10/12 06:54:40;;;;;;;13.05;7.32;;;6.30;99.90;;;;;;5072473;28;20040;-67
2022/10/12 06:57:06;;;;;;;15.82;7.40;;;6.40;99.90;;;;;;5069180;28;20056;-65
2022/10/12 06:59:32;;;;;;;10.98;7.70;;;6.50;99.90;;;;;;5087142;28;20097;-65
2022/10/12 07:01:57;;;;;;;8.90;5.60;;;6.60;99.90;;;;;;5089128;28;20059;-65
2022/10/12 07:04:23;;;;;;;10.57;7.22;;;6.70;99.90;;;;;;5087380;28;20475;-66
2022/10/12 07:06:48;;;;;;;11.90;8.15;;;6.80;99.90;;;;;;5090434;28;20394;-65
2022/10/12 07:09:16;;;;;;;14.63;7.95;;;7.00;99.90;;;;;;5088169;28;20456;-67
2022/10/12 07:11:41;;;;;;;12.05;8.18;;;7.10;99.90;;;;;;5073904;28;20063;-66
2022/10/12 07:14:07;;;;;;;13.68;8.57;;;7.30;99.90;;;;;;5087739;28;20048;-65
2022/10/12 07:16:33;;;;;;;15.00;8.63;;;7.40;99.90;;;;;;5070497;28;20052;-65
2022/10/12 07:18:59;;;;;;;18.38;8.98;;;7.60;99.90;;;;;;5071787;28;20063;-67
2022/10/12 07:21:25;;;;;;;16.88;8.48;;;7.80;99.90;;;;;;5089036;28;20138;-66
2022/10/12 07:23:51;;;;;;;18.98;9.07;;;8.00;99.90;;;;;;5085024;28;20078;-67
2022/10/12 07:26:17;;;;;;;17.33;7.95;;;8.20;99.90;;;;;;5106274;28;20479;-66
2022/10/12 07:28:42;;;;;;;14.48;8.55;;;8.40;99.90;;;;;;5089013;28;20101;-66
2022/10/12 07:31:08;;;;;;;17.48;8.70;;;8.60;99.90;;;;;;5088265;28;20032;-64
2022/10/12 07:33:37;;;;;;;16.85;8.07;;;8.70;99.90;;;;;;5088824;28;20044;-66
2022/10/12 07:36:04;;;;;;;16.45;7.68;;;8.80;99.90;;;;;;5090838;28;20063;-66
2022/10/12 07:38:29;;;;;;;12.43;7.60;;;8.80;99.90;;;;;;5089019;28;20052;-65
2022/10/12 07:40:59;;;;;;;19.48;7.57;;;8.80;99.90;;;;;;5089349;28;20032;-65
2022/10/12 07:43:24;;;;;;;14.85;7.78;;;8.80;99.90;;;;;;5071735;28;20043;-66
2022/10/12 07:45:50;;;;;;;14.80;7.53;;;8.80;99.90;;;;;;5089427;28;20473;-66
2022/10/12 07:48:15;;;;;;;14.18;6.95;;;8.80;99.90;;;;;;5087683;28;20047;-65
2022/10/12 07:50:41;;;;;;;17.38;9.68;;;8.80;99.90;;;;;;5093540;28;20056;-67
2022/10/12 07:53:07;;;;;;;10.27;6.22;;;8.80;99.90;;;;;;5088220;28;20398;-66
2022/10/12 07:55:32;;;;;;;13.30;7.30;;;8.80;99.90;;;;;;5084016;28;20138;-65
2022/10/12 07:57:59;;;;;;;17.20;6.85;;;8.90;99.90;;;;;;5090474;28;20084;-66
2022/10/12 08:00:26;;;;;;;13.65;5.85;;;8.90;99.90;;;;;;5089610;28;20059;-65
2022/10/12 08:02:51;;;;;;;17.67;6.28;;;8.90;99.90;;;;;;5090803;28;20376;-65
2022/10/12 08:05:20;;;;;;;15.02;5.82;;;8.90;99.90;;;;;;5091117;28;20043;-65
2022/10/12 08:07:46;;;;;;;11.65;5.70;;;8.90;99.90;;;;;;5089063;28;20502;-66
2022/10/12 08:10:12;;;;;;;15.25;9.35;;;8.90;99.90;;;;;;5089292;28;20486;-65
2022/10/12 08:12:38;;;;;;;15.43;9.52;;;8.90;99.90;;;;;;5088463;28;20065;-67
2022/10/12 08:15:04;;;;;;;14.60;6.80;;;9.00;99.90;;;;;;5089037;28;20043;-64
2022/10/12 08:17:30;;;;;;;14.52;6.85;;;9.00;99.90;;;;;;5088484;28;20502;-65
2022/10/12 08:19:55;;;;;;;15.07;6.43;;;9.00;99.90;;;;;;5089810;28;20039;-64
2022/10/12 08:22:21;;;;;;;11.45;5.90;;;9.00;99.90;;;;;;5070592;28;20086;-66
2022/10/12 08:24:46;;;;;;;14.00;5.63;;;9.00;99.90;;;;;;5070207;28;20040;-66
2022/10/12 08:27:12;;;;;;;13.75;6.60;;;9.10;99.90;;;;;;5089158;28;20403;-66
2022/10/12 08:29:38;;;;;;;13.48;5.70;;;9.20;99.90;;;;;;5089351;28;20052;-65
2022/10/12 08:32:04;;;;;;;12.68;6.00;;;9.30;99.90;;;;;;5069939;28;20037;-66
2022/10/12 08:34:30;;;;;;;14.15;6.07;;;9.30;99.90;;;;;;5084450;28;20131;-66
2022/10/12 08:36:57;;;;;;;13.93;6.30;;;9.30;99.90;;;;;;5096792;28;20111;-65
2022/10/12 08:39:22;;;;;;;12.07;6.30;;;9.30;99.90;;;;;;5088491;28;20410;-65
2022/10/12 08:42:04;;;;;;;15.18;6.03;;;9.40;99.90;;;;;;5088888;28;20044;-65
2022/10/12 08:44:40;;;;;;;11.20;6.40;;;9.50;99.90;;;;;;5092724;28;20475;-65
2022/10/12 08:47:27;;;;;;;13.73;5.90;;;9.90;99.90;;;;;;5092821;28;20087;-67
2022/10/12 08:49:53;;;;;;;10.52;5.60;;;10.20;99.90;;;;;;5092628;28;20115;-65
2022/10/12 08:52:30;;;;;;;11.93;5.53;;;10.50;99.90;;;;;;5092356;28;20126;-65
2022/10/12 08:55:05;;;;;;;11.10;5.03;;;10.80;99.90;;;;;;5091614;28;20464;-65
2022/10/12 08:57:30;;;;;;;15.15;5.70;;;11.10;99.90;;;;;;5092264;28;20048;-65
2022/10/12 08:59:57;;;;;;;14.20;4.85;;;11.40;99.90;;;;;;5092372;28;20399;-66
2022/10/12 09:03:01;;;;;;;13.02;4.88;;;11.60;99.90;;;;;;5075272;28;20406;-67
2022/10/12 09:05:42;;;;;;;10.98;4.40;;;11.90;99.90;;;;;;5074219;28;20453;-65
2022/10/12 09:08:23;;;;;;;14.88;5.00;;;12.00;99.90;;;;;;5078533;28;20062;-66
2022/10/12 09:11:12;;;;;;;11.18;4.35;;;12.10;99.90;;;;;;5092102;28;20486;-66
2022/10/12 09:14:03;;;;;;;15.35;7.80;;;12.20;99.90;;;;;;5091861;28;20036;-66
2022/10/12 09:16:33;;;;;;;12.23;5.47;;;12.20;99.90;;;;;;5091911;28;20047;-64
2022/10/12 09:19:21;;;;;;;9.63;4.30;;;12.20;99.90;;;;;;5090008;28;20066;-67
2022/10/12 09:21:49;;;;;;;12.55;5.38;;;12.40;99.90;;;;;;5087526;28;20040;-66
2022/10/12 09:24:26;;;;;;;10.55;4.78;;;12.60;99.90;;;;;;5090246;28;20443;-66
2022/10/12 09:26:57;;;;;;;11.27;4.00;;;12.80;99.90;;;;;;5090386;28;20045;-67
2022/10/12 09:29:28;;;;;;;10.98;4.28;;;13.00;99.90;;;;;;5089596;28;20105;-66
2022/10/12 09:32:21;;;;;;;10.82;4.18;;;13.10;99.90;;;;;;5088417;28;20047;-65
2022/10/12 09:34:47;;;;;;;13.10;3.95;;;13.40;99.90;;;;;;5088925;28;20806;-66
2022/10/12 09:37:23;;;;;;;12.35;4.22;;;13.80;99.90;;;;;;5088754;28;20079;-65
2022/10/12 09:39:49;;;;;;;20.90;6.18;;;14.20;99.90;;;;;;5054085;28;20047;-65
2022/10/12 09:42:15;;;;;;;10.80;3.90;;;14.50;99.90;;;;;;5074517;28;20055;-66
2022/10/12 09:44:47;;;;;;;10.55;4.03;;;14.70;99.90;;;;;;5074349;28;20494;-66
2022/10/12 09:47:28;;;;;;;10.38;3.83;;;14.70;99.90;;;;;;5074420;28;20040;-65
2022/10/12 09:50:03;;;;;;;11.73;3.50;;;14.80;99.90;;;;;;5074220;28;20040;-65
2022/10/12 09:52:40;;;;;;;10.55;3.67;;;15.00;99.90;;;;;;5074282;28;20044;-66
2022/10/12 09:55:24;;;;;;;6.70;3.30;;;15.20;99.90;;;;;;5073774;28;20055;-66
2022/10/12 09:57:56;;;;;;;9.30;3.88;;;15.50;99.90;;;;;;5074735;28;20482;-66
2022/10/12 10:00:22;;;;;;;11.03;3.43;;;15.80;99.90;;;;;;5073846;28;20044;-66
2022/10/12 10:02:49;;;;;;;9.13;3.13;;;16.00;99.90;;;;;;5074012;28;20294;-67
2022/10/12 10:05:27;;;;;;;8.50;3.33;;;16.10;99.90;;;;;;5068857;28;20558;-66
2022/10/12 10:08:18;;;;;;;8.15;3.20;;;16.20;99.90;;;;;;5062523;28;20493;-68
2022/10/12 10:10:55;;;;;;;9.27;3.40;;;16.40;99.90;;;;;;5061372;28;20093;-65
2022/10/12 10:13:25;;;;;;;8.82;3.35;;;16.60;99.90;;;;;;5059980;28;20039;-66
2022/10/12 10:16:02;;;;;;;7.38;2.70;;;16.60;99.90;;;;;;5044530;28;20059;-65
2022/10/12 10:18:37;;;;;;;10.55;2.90;;;16.70;99.90;;;;;;5058794;28;20040;-65
2022/10/12 10:21:08;;;;;;;12.43;3.58;;;17.00;99.90;;;;;;5059110;28;20114;-66
2022/10/12 10:23:38;;;;;;;10.38;3.25;;;17.30;99.90;;;;;;5073660;28;20042;-66
2022/10/12 10:26:15;;;;;;;10.93;3.25;;;17.30;99.90;;;;;;5069853;28;20047;-67
2022/10/12 10:28:43;;;;;;;8.93;3.08;;;17.50;99.90;;;;;;5064819;28;20434;-64
2022/10/12 10:31:12;;;;;;;11.43;3.55;;;17.70;99.90;;;;;;5075723;28;20055;-66
2022/10/12 10:34:14;;;;;;;9.30;3.28;;;18.00;99.90;;;;;;5087998;28;20418;-66
2022/10/12 10:36:59;;;;;;;6.93;2.80;;;18.30;99.90;;;;;;5088643;28;20059;-67
2022/10/12 10:39:53;;;;;;;11.15;2.67;;;18.50;99.90;;;;;;5066213;28;20050;-67
2022/10/12 10:42:38;;;;;;;10.48;3.83;;;18.60;99.90;;;;;;5071446;28;20471;-66
2022/10/12 10:45:29;;;;;;;9.23;2.67;;;18.80;99.90;;;;;;5069330;28;20027;-66
2022/10/12 10:48:20;;;;;;;8.95;2.80;;;19.00;99.60;;;;;;5067517;28;20032;-65
2022/10/12 10:50:52;;;;;;;8.80;3.05;;;19.20;98.60;;;;;;5048819;28;20459;-66
2022/10/12 10:53:21;;;;;;;7.90;2.67;;;19.30;98.40;;;;;;5053827;28;20047;-67
2022/10/12 10:55:56;;;;;;;11.90;2.70;;;19.40;98.20;;;;;;5051835;28;20057;-66
2022/10/12 10:58:44;;;;;;;6.10;2.20;;;19.60;97.90;;;;;;5052830;28;20048;-66
2022/10/12 11:01:20;;;;;;;5.90;2.03;;;19.80;97.60;;;;;;5036217;28;20048;-67
2022/10/12 11:03:59;;;;;;;5.15;2.00;;;19.90;96.70;;;;;;5055056;28;20049;-67
2022/10/12 11:06:36;;;;;;;6.68;2.20;;;20.00;96.10;;;;;;5053707;28;20048;-67
2022/10/12 11:09:13;;;;;;;7.55;2.35;;;20.10;96.10;;;;;;5056758;28;20072;-65
2022/10/12 11:11:40;;;;;;;9.43;2.58;;;20.10;94.70;;;;;;5052477;28;20044;-67
2022/10/12 11:14:32;;;;;;;10.13;2.30;;;20.00;94.20;;;;;;5052931;28;20048;-68
2022/10/12 11:17:16;;;;;;;5.50;2.00;;;19.60;92.60;;;;;;5053343;28;20041;-67
2022/10/12 11:20:01;;;;;;;6.57;1.85;;;19.50;93.00;;;;;;5052764;28;20068;-67
2022/10/12 11:22:49;;;;;;;5.82;1.85;;;19.60;92.90;;;;;;5052477;28;20171;-68
2022/10/12 11:25:26;;;;;;;5.82;1.98;;;19.50;92.50;;;;;;5052816;28;20044;-67
2022/10/12 11:27:51;;;;;;;6.70;1.80;;;19.60;92.80;;;;;;5054861;28;20051;-68
2022/10/12 11:30:20;;;;;;;6.72;1.90;;;19.60;92.00;;;;;;5055142;28;20044;-67
2022/10/12 11:32:51;;;;;;;6.65;1.90;;;19.40;91.20;;;;;;5052962;28;20049;-67
2022/10/12 11:35:26;;;;;;;7.47;1.90;;;19.20;91.30;;;;;;5052958;28;20128;-65
2022/10/12 11:38:02;;;;;;;5.40;1.90;;;19.20;91.20;;;;;;5059264;28;20044;-67
2022/10/12 11:40:38;;;;;;;6.20;2.20;;;18.90;91.10;;;;;;5072224;28;20051;-68
2022/10/12 11:43:10;;;;;;;8.02;2.45;;;18.80;90.80;;;;;;5072644;28;20036;-66
2022/10/12 11:45:42;;;;;;;4.93;1.90;;;18.60;91.30;;;;;;5072608;28;20394;-67
2022/10/12 11:48:19;;;;;;;8.50;2.35;;;18.40;91.30;;;;;;5072609;28;20032;-67
2022/10/12 11:50:48;;;;;;;7.82;1.98;;;18.30;91.20;;;;;;5072026;28;20779;-66
2022/10/12 11:53:36;;;;;;;3.45;1.40;;;18.00;90.80;;;;;;5056078;28;20126;-67
2022/10/12 11:56:23;;;;;;;5.75;2.08;;;17.70;91.10;;;;;;5090541;28;20044;-66
2022/10/12 11:58:56;;;;;;;6.13;1.95;;;17.60;91.40;;;;;;5072503;28;20044;-66
2022/10/12 12:01:44;;;;;;;8.48;2.65;;;17.40;91.10;;;;;;5072329;28;20560;-65
2022/10/12 12:04:25;;;;;;;7.03;1.98;;;17.20;92.00;;;;;;5072459;28;20095;-65
2022/10/12 12:06:57;;;;;;;8.98;3.03;;;17.10;92.90;;;;;;5072497;28;20547;-65
2022/10/12 12:09:41;;;;;;;8.43;2.78;;;16.90;92.60;;;;;;5072522;28;20038;-67
2022/10/12 12:12:17;;;;;;;8.27;3.05;;;16.60;92.80;;;;;;5072067;28;20105;-65
2022/10/12 12:14:51;;;;;;;10.05;4.28;;;16.40;93.50;;;;;;5071898;28;20072;-66
2022/10/12 12:17:17;;;;;;;8.57;3.17;;;16.20;93.60;;;;;;5073258;28;20051;-66
2022/10/12 12:19:51;;;;;;;12.48;3.05;;;16.00;93.80;;;;;;5076078;28;20040;-68
2022/10/12 12:22:28;;;;;;;8.88;3.40;;;16.00;94.60;;;;;;5075904;28;20040;-67
2022/10/12 12:25:07;;;;;;;8.20;3.10;;;15.90;95.20;;;;;;5076119;28;20090;-67
2022/10/12 12:27:47;;;;;;;9.50;3.30;;;16.00;95.30;;;;;;5076077;28;20044;-67
2022/10/12 12:30:18;;;;;;;7.93;3.33;;;15.80;95.30;;;;;;5076111;28;20040;-66
2022/10/12 12:32:55;;;;;;;8.15;3.17;;;15.80;95.40;;;;;;5075345;28;20044;-65
2022/10/12 12:35:28;;;;;;;6.82;2.88;;;15.80;96.00;;;;;;5075887;28;20071;-66
2022/10/12 12:38:12;;;;;;;11.10;3.70;;;15.80;96.20;;;;;;5061844;28;20047;-67
2022/10/12 12:40:39;;;;;;;9.57;2.90;;;15.90;96.40;;;;;;5092738;28;20059;-67
2022/10/12 12:43:28;;;;;;;13.05;3.88;;;16.10;96.10;;;;;;5092413;28;20055;-67
2022/10/12 12:46:03;;;;;;;9.10;3.53;;;16.10;96.40;;;;;;5092598;28;20032;-67
2022/10/12 12:48:37;;;;;;;8.45;3.17;;;16.00;95.90;;;;;;5092667;28;20039;-66
2022/10/12 12:51:07;;;;;;;9.07;4.18;;;15.90;96.30;;;;;;5092390;28;20055;-66
2022/10/12 12:53:35;;;;;;;11.30;3.63;;;15.90;96.30;;;;;;5093430;28;20035;-66
2022/10/12 12:56:10;;;;;;;8.13;3.40;;;15.90;96.40;;;;;;5092302;28;20040;-67
2022/10/12 12:59:09;;;;;;;9.93;3.65;;;15.90;96.20;;;;;;5092417;28;20032;-68
2022/10/12 13:02:00;;;;;;;13.10;3.70;;;15.90;96.70;;;;;;5092371;28;20036;-66
2022/10/12 13:04:38;;;;;;;10.98;3.20;;;15.90;96.80;;;;;;5075529;28;20036;-66
2022/10/12 13:07:25;;;;;;;10.07;3.40;;;15.90;96.70;;;;;;5092386;28;20363;-66
2022/10/12 13:10:09;;;;;;;8.93;3.50;;;16.40;96.70;;;;;;5092037;28;20036;-67